sensor_id;sensor_type;location;lat;lon;timestamp;pressure;altitude;pressure_sealevel;temperature;humidity
38616;BME280;24370;51.986;4.666;2023-02-21T00:01:07;102146.91;;;15.67;61.21
38616;BME280;24370;51.986;4.666;2023-02-21T00:03:51;102152.41;;;15.47;62.26
38616;BME280;24370;51.986;4.666;2023-02-21T00:06:35;102155.22;;;16.13;60.57
38616;BME280;24370;51.986;4.666;2023-02-21T00:09:19;102151.78;;;15.16;65.97
38616;BME280;24370;51.986;4.666;2023-02-21T00:12:04;102158.50;;;14.08;66.30
38616;BME280;24370;51.986;4.666;2023-02-21T00:14:48;102162.56;;;14.82;67.17
38616;BME280;24370;51.986;4.666;2023-02-21T00:17:32;102162.94;;;15.44;63.99
38616;BME280;24370;51.986;4.666;2023-02-21T00:20:16;102160.03;;;15.73;61.35
38616;BME280;24370;51.986;4.666;2023-02-21T00:23:00;102157.50;;;15.64;63.69
38616;BME280;24370;51.986;4.666;2023-02-21T00:25:44;102160.09;;;14.46;66.78
38616;BME280;24370;51.986;4.666;2023-02-21T00:28:28;102159.56;;;15.30;64.75
38616;BME280;24370;51.986;4.666;2023-02-21T00:31:11;102158.25;;;14.73;66.06
38616;BME280;24370;51.986;4.666;2023-02-21T00:33:55;102148.66;;;15.70;62.13
38616;BME280;24370;51.986;4.666;2023-02-21T00:36:39;102156.34;;;14.90;65.27
38616;BME280;24370;51.986;4.666;2023-02-21T00:39:23;102148.72;;;15.65;61.46
38616;BME280;24370;51.986;4.666;2023-02-21T00:42:07;102148.28;;;15.14;63.95
38616;BME280;24370;51.986;4.666;2023-02-21T00:44:51;102155.75;;;14.47;67.56
38616;BME280;24370;51.986;4.666;2023-02-21T00:47:35;102156.94;;;15.30;63.22
38616;BME280;24370;51.986;4.666;2023-02-21T00:50:19;102153.25;;;15.48;63.35
38616;BME280;24370;51.986;4.666;2023-02-21T00:53:03;102156.38;;;14.92;64.91
38616;BME280;24370;51.986;4.666;2023-02-21T00:55:47;102155.47;;;14.96;63.78
38616;BME280;24370;51.986;4.666;2023-02-21T00:58:31;102159.44;;;13.90;69.66
38616;BME280;24370;51.986;4.666;2023-02-21T01:01:15;102147.88;;;14.33;70.34
38616;BME280;24370;51.986;4.666;2023-02-21T01:03:59;102142.81;;;15.38;64.69
38616;BME280;24370;51.986;4.666;2023-02-21T01:06:42;102130.44;;;15.50;64.20
38616;BME280;24370;51.986;4.666;2023-02-21T01:09:26;102138.59;;;15.19;63.80
38616;BME280;24370;51.986;4.666;2023-02-21T01:12:10;102124.84;;;14.83;68.57
38616;BME280;24370;51.986;4.666;2023-02-21T01:14:54;102132.59;;;15.01;64.69
38616;BME280;24370;51.986;4.666;2023-02-21T01:17:38;102135.03;;;16.11;60.41
38616;BME280;24370;51.986;4.666;2023-02-21T01:20:22;102121.78;;;15.34;63.52
38616;BME280;24370;51.986;4.666;2023-02-21T01:23:06;102125.69;;;15.86;60.29
38616;BME280;24370;51.986;4.666;2023-02-21T01:25:50;102116.94;;;15.81;61.41
38616;BME280;24370;51.986;4.666;2023-02-21T01:28:34;102126.38;;;16.00;60.74
38616;BME280;24370;51.986;4.666;2023-02-21T01:31:19;102119.97;;;16.18;61.26
38616;BME280;24370;51.986;4.666;2023-02-21T01:34:03;102119.38;;;15.96;60.27
38616;BME280;24370;51.986;4.666;2023-02-21T01:36:47;102114.41;;;16.41;59.17
38616;BME280;24370;51.986;4.666;2023-02-21T01:39:32;102111.16;;;16.24;58.47
38616;BME280;24370;51.986;4.666;2023-02-21T01:42:17;102117.94;;;16.42;57.76
38616;BME280;24370;51.986;4.666;2023-02-21T01:48:03;102113.91;;;16.15;60.74
38616;BME280;24370;51.986;4.666;2023-02-21T01:50:47;102108.13;;;14.90;62.32
38616;BME280;24370;51.986;4.666;2023-02-21T01:53:31;102112.59;;;15.73;60.89
38616;BME280;24370;51.986;4.666;2023-02-21T01:56:15;102105.53;;;15.75;62.11
38616;BME280;24370;51.986;4.666;2023-02-21T01:59:00;102117.06;;;15.67;62.67
38616;BME280;24370;51.986;4.666;2023-02-21T02:02:02;102110.00;;;15.67;62.51
38616;BME280;24370;51.986;4.666;2023-02-21T02:04:48;102112.72;;;15.61;61.53
38616;BME280;24370;51.986;4.666;2023-02-21T02:07:33;102103.03;;;14.62;68.78
38616;BME280;24370;51.986;4.666;2023-02-21T02:10:18;102086.91;;;15.05;66.89
38616;BME280;24370;51.986;4.666;2023-02-21T02:13:22;102091.25;;;15.13;65.93
38616;BME280;24370;51.986;4.666;2023-02-21T02:16:02;102095.66;;;15.10;67.51
38616;BME280;24370;51.986;4.666;2023-02-21T02:19:44;102095.03;;;14.78;67.89
38616;BME280;24370;51.986;4.666;2023-02-21T02:24:39;102095.13;;;15.63;62.69
38616;BME280;24370;51.986;4.666;2023-02-21T02:38:22;102084.91;;;16.13;61.45
38616;BME280;24370;51.986;4.666;2023-02-21T02:43:43;102081.78;;;15.78;62.27
38616;BME280;24370;51.986;4.666;2023-02-21T02:46:23;102090.44;;;16.57;59.22
38616;BME280;24370;51.986;4.666;2023-02-21T02:48:57;102083.94;;;16.19;60.22
38616;BME280;24370;51.986;4.666;2023-02-21T02:51:25;102078.00;;;16.65;57.95
38616;BME280;24370;51.986;4.666;2023-02-21T02:53:50;102073.66;;;16.59;56.66
38616;BME280;24370;51.986;4.666;2023-02-21T02:56:16;102072.16;;;16.43;59.50
38616;BME280;24370;51.986;4.666;2023-02-21T03:09:08;102072.03;;;15.01;64.45
38616;BME280;24370;51.986;4.666;2023-02-21T03:11:42;102082.63;;;15.84;61.94
38616;BME280;24370;51.986;4.666;2023-02-21T03:14:15;102077.47;;;15.71;61.27
38616;BME280;24370;51.986;4.666;2023-02-21T03:16:46;102075.22;;;15.34;63.90
38616;BME280;24370;51.986;4.666;2023-02-21T03:19:16;102062.84;;;15.44;64.57
38616;BME280;24370;51.986;4.666;2023-02-21T03:21:48;102067.03;;;15.60;63.97
38616;BME280;24370;51.986;4.666;2023-02-21T03:24:17;102064.34;;;14.80;66.44
38616;BME280;24370;51.986;4.666;2023-02-21T03:26:46;102068.31;;;16.02;61.68
38616;BME280;24370;51.986;4.666;2023-02-21T03:29:14;102065.41;;;15.52;63.03
38616;BME280;24370;51.986;4.666;2023-02-21T03:31:44;102066.28;;;16.24;61.34
38616;BME280;24370;51.986;4.666;2023-02-21T03:34:11;102068.81;;;15.60;62.35
38616;BME280;24370;51.986;4.666;2023-02-21T03:36:37;102066.78;;;15.87;61.66
38616;BME280;24370;51.986;4.666;2023-02-21T03:39:03;102070.75;;;15.42;62.88
38616;BME280;24370;51.986;4.666;2023-02-21T03:41:29;102074.13;;;15.57;62.18
38616;BME280;24370;51.986;4.666;2023-02-21T03:43:55;102064.25;;;16.41;57.71
38616;BME280;24370;51.986;4.666;2023-02-21T03:46:20;102065.84;;;16.55;59.52
38616;BME280;24370;51.986;4.666;2023-02-21T03:48:46;102062.56;;;16.37;58.87
38616;BME280;24370;51.986;4.666;2023-02-21T03:51:11;102071.41;;;16.33;59.30
38616;BME280;24370;51.986;4.666;2023-02-21T03:53:37;102060.75;;;16.42;59.25
38616;BME280;24370;51.986;4.666;2023-02-21T03:56:02;102061.69;;;16.96;56.77
38616;BME280;24370;51.986;4.666;2023-02-21T03:58:28;102075.09;;;15.48;61.79
38616;BME280;24370;51.986;4.666;2023-02-21T04:00:53;102070.16;;;16.59;57.36
38616;BME280;24370;51.986;4.666;2023-02-21T04:03:19;102078.41;;;16.37;57.09
38616;BME280;24370;51.986;4.666;2023-02-21T04:05:44;102059.78;;;17.04;56.03
38616;BME280;24370;51.986;4.666;2023-02-21T04:08:10;102070.41;;;15.75;60.65
38616;BME280;24370;51.986;4.666;2023-02-21T04:10:36;102056.91;;;16.62;58.24
38616;BME280;24370;51.986;4.666;2023-02-21T04:13:01;102063.44;;;16.97;56.73
38616;BME280;24370;51.986;4.666;2023-02-21T04:15:26;102063.94;;;16.63;58.48
38616;BME280;24370;51.986;4.666;2023-02-21T04:17:52;102072.50;;;16.18;58.88
38616;BME280;24370;51.986;4.666;2023-02-21T04:20:17;102074.91;;;15.65;60.10
38616;BME280;24370;51.986;4.666;2023-02-21T04:22:42;102064.31;;;16.38;58.41
38616;BME280;24370;51.986;4.666;2023-02-21T04:25:09;102057.16;;;17.03;56.05
38616;BME280;24370;51.986;4.666;2023-02-21T04:27:34;102065.66;;;15.27;60.30
38616;BME280;24370;51.986;4.666;2023-02-21T04:30:00;102067.81;;;15.69;60.61
38616;BME280;24370;51.986;4.666;2023-02-21T04:32:25;102068.81;;;15.60;63.74
38616;BME280;24370;51.986;4.666;2023-02-21T04:34:51;102067.19;;;16.23;60.65
38616;BME280;24370;51.986;4.666;2023-02-21T04:37:17;102048.63;;;16.29;59.61
38616;BME280;24370;51.986;4.666;2023-02-21T04:39:43;102061.47;;;15.90;59.24
38616;BME280;24370;51.986;4.666;2023-02-21T04:42:08;102058.75;;;15.14;63.10
38616;BME280;24370;51.986;4.666;2023-02-21T04:44:34;102059.84;;;15.76;62.23
38616;BME280;24370;51.986;4.666;2023-02-21T04:46:59;102058.56;;;16.08;60.57
38616;BME280;24370;51.986;4.666;2023-02-21T04:49:25;102061.41;;;15.93;61.44
38616;BME280;24370;51.986;4.666;2023-02-21T04:51:52;102053.41;;;15.23;63.03
38616;BME280;24370;51.986;4.666;2023-02-21T04:54:17;102045.69;;;15.04;67.41
38616;BME280;24370;51.986;4.666;2023-02-21T04:56:43;102042.53;;;15.55;63.38
38616;BME280;24370;51.986;4.666;2023-02-21T04:59:08;102034.47;;;16.33;59.12
38616;BME280;24370;51.986;4.666;2023-02-21T05:01:34;102041.09;;;15.25;63.38
38616;BME280;24370;51.986;4.666;2023-02-21T05:03:59;102032.56;;;16.99;56.73
38616;BME280;24370;51.986;4.666;2023-02-21T05:06:26;102048.03;;;16.08;60.43
38616;BME280;24370;51.986;4.666;2023-02-21T05:08:52;102050.44;;;15.55;61.35
38616;BME280;24370;51.986;4.666;2023-02-21T05:11:19;102048.75;;;15.47;63.23
38616;BME280;24370;51.986;4.666;2023-02-21T05:13:45;102038.16;;;16.23;59.87
38616;BME280;24370;51.986;4.666;2023-02-21T05:16:11;102037.28;;;15.54;63.51
38616;BME280;24370;51.986;4.666;2023-02-21T05:18:36;102043.28;;;16.34;59.49
38616;BME280;24370;51.986;4.666;2023-02-21T05:21:05;102046.19;;;16.15;58.70
38616;BME280;24370;51.986;4.666;2023-02-21T05:23:32;102049.78;;;16.09;59.23
38616;BME280;24370;51.986;4.666;2023-02-21T05:26:08;102045.59;;;15.93;59.67
38616;BME280;24370;51.986;4.666;2023-02-21T05:28:35;102051.03;;;15.81;61.30
38616;BME280;24370;51.986;4.666;2023-02-21T05:31:01;102040.28;;;16.58;57.73
38616;BME280;24370;51.986;4.666;2023-02-21T05:33:27;102047.34;;;15.94;59.38
38616;BME280;24370;51.986;4.666;2023-02-21T05:35:52;102031.88;;;16.32;58.82
38616;BME280;24370;51.986;4.666;2023-02-21T05:38:19;102045.91;;;15.65;61.84
38616;BME280;24370;51.986;4.666;2023-02-21T05:40:45;102034.28;;;16.45;59.50
38616;BME280;24370;51.986;4.666;2023-02-21T05:43:11;102042.41;;;15.66;60.52
38616;BME280;24370;51.986;4.666;2023-02-21T05:45:36;102040.44;;;15.87;59.73
38616;BME280;24370;51.986;4.666;2023-02-21T05:48:02;102033.41;;;17.01;55.80
38616;BME280;24370;51.986;4.666;2023-02-21T05:50:28;102037.13;;;16.33;59.01
38616;BME280;24370;51.986;4.666;2023-02-21T05:52:55;102034.28;;;17.02;56.49
38616;BME280;24370;51.986;4.666;2023-02-21T05:55:20;102031.69;;;16.44;56.18
38616;BME280;24370;51.986;4.666;2023-02-21T05:57:46;102029.41;;;16.19;58.02
38616;BME280;24370;51.986;4.666;2023-02-21T06:00:19;102040.59;;;16.37;58.10
38616;BME280;24370;51.986;4.666;2023-02-21T06:02:48;102049.22;;;15.86;61.85
38616;BME280;24370;51.986;4.666;2023-02-21T06:05:15;102038.91;;;16.89;57.35
38616;BME280;24370;51.986;4.666;2023-02-21T06:07:40;102045.53;;;17.58;53.17
38616;BME280;24370;51.986;4.666;2023-02-21T06:10:06;102044.81;;;17.03;55.10
38616;BME280;24370;51.986;4.666;2023-02-21T06:12:31;102045.19;;;16.24;56.74
38616;BME280;24370;51.986;4.666;2023-02-21T06:14:57;102043.38;;;16.26;58.27
38616;BME280;24370;51.986;4.666;2023-02-21T06:17:23;102039.50;;;16.52;58.13
38616;BME280;24370;51.986;4.666;2023-02-21T06:19:48;102041.09;;;15.26;60.47
38616;BME280;24370;51.986;4.666;2023-02-21T06:22:13;102044.00;;;15.78;59.03
38616;BME280;24370;51.986;4.666;2023-02-21T06:24:39;102044.22;;;16.86;57.19
38616;BME280;24370;51.986;4.666;2023-02-21T06:27:04;102045.94;;;17.38;55.31
38616;BME280;24370;51.986;4.666;2023-02-21T06:29:30;102051.34;;;16.81;55.05
38616;BME280;24370;51.986;4.666;2023-02-21T06:31:57;102044.25;;;16.28;58.15
38616;BME280;24370;51.986;4.666;2023-02-21T06:34:22;102042.53;;;17.32;54.75
38616;BME280;24370;51.986;4.666;2023-02-21T06:36:51;102046.13;;;16.77;56.64
38616;BME280;24370;51.986;4.666;2023-02-21T06:39:17;102057.28;;;15.69;60.59
38616;BME280;24370;51.986;4.666;2023-02-21T06:41:42;102063.69;;;15.46;60.78
38616;BME280;24370;51.986;4.666;2023-02-21T06:44:07;102060.59;;;15.91;59.95
38616;BME280;24370;51.986;4.666;2023-02-21T06:46:33;102055.81;;;16.18;57.96
38616;BME280;24370;51.986;4.666;2023-02-21T06:49:00;102059.50;;;16.07;58.51
38616;BME280;24370;51.986;4.666;2023-02-21T06:51:26;102070.84;;;16.11;58.04
38616;BME280;24370;51.986;4.666;2023-02-21T06:53:54;102060.94;;;17.36;55.25
38616;BME280;24370;51.986;4.666;2023-02-21T06:56:20;102054.63;;;16.96;54.28
38616;BME280;24370;51.986;4.666;2023-02-21T06:58:45;102058.22;;;16.91;55.45
38616;BME280;24370;51.986;4.666;2023-02-21T07:01:10;102067.50;;;16.00;59.22
38616;BME280;24370;51.986;4.666;2023-02-21T07:03:40;102067.00;;;15.65;59.81
38616;BME280;24370;51.986;4.666;2023-02-21T07:06:07;102055.78;;;16.77;57.80
38616;BME280;24370;51.986;4.666;2023-02-21T07:08:32;102069.88;;;16.20;58.43
38616;BME280;24370;51.986;4.666;2023-02-21T07:10:58;102066.47;;;17.24;55.09
38616;BME280;24370;51.986;4.666;2023-02-21T07:13:23;102066.53;;;16.66;56.38
38616;BME280;24370;51.986;4.666;2023-02-21T07:15:49;102062.94;;;16.70;57.79
38616;BME280;24370;51.986;4.666;2023-02-21T07:18:14;102064.38;;;17.41;54.07
38616;BME280;24370;51.986;4.666;2023-02-21T07:20:39;102056.03;;;17.18;54.03
38616;BME280;24370;51.986;4.666;2023-02-21T07:23:05;102057.09;;;16.50;57.11
38616;BME280;24370;51.986;4.666;2023-02-21T07:25:30;102059.88;;;16.42;57.39
38616;BME280;24370;51.986;4.666;2023-02-21T07:27:56;102059.34;;;16.74;56.10
38616;BME280;24370;51.986;4.666;2023-02-21T07:30:21;102055.47;;;16.42;57.87
38616;BME280;24370;51.986;4.666;2023-02-21T07:32:47;102071.28;;;15.74;60.38
38616;BME280;24370;51.986;4.666;2023-02-21T07:35:12;102065.09;;;15.83;60.10
38616;BME280;24370;51.986;4.666;2023-02-21T07:37:38;102056.09;;;17.15;55.55
38616;BME280;24370;51.986;4.666;2023-02-21T07:40:04;102060.16;;;16.79;55.07
38616;BME280;24370;51.986;4.666;2023-02-21T07:42:31;102062.53;;;17.46;53.45
38616;BME280;24370;51.986;4.666;2023-02-21T07:44:57;102057.50;;;17.33;55.15
38616;BME280;24370;51.986;4.666;2023-02-21T07:47:26;102061.13;;;17.27;54.60
38616;BME280;24370;51.986;4.666;2023-02-21T07:49:53;102064.78;;;17.20;54.10
38616;BME280;24370;51.986;4.666;2023-02-21T07:52:20;102063.56;;;17.81;51.31
38616;BME280;24370;51.986;4.666;2023-02-21T07:54:45;102062.69;;;17.83;52.24
38616;BME280;24370;51.986;4.666;2023-02-21T07:57:11;102065.59;;;16.70;56.39
38616;BME280;24370;51.986;4.666;2023-02-21T07:59:36;102058.22;;;16.91;55.68
38616;BME280;24370;51.986;4.666;2023-02-21T08:02:03;102055.91;;;17.22;54.98
38616;BME280;24370;51.986;4.666;2023-02-21T08:04:28;102060.09;;;17.79;53.30
38616;BME280;24370;51.986;4.666;2023-02-21T08:06:58;102052.69;;;17.08;54.52
38616;BME280;24370;51.986;4.666;2023-02-21T08:09:24;102060.19;;;17.31;53.74
38616;BME280;24370;51.986;4.666;2023-02-21T08:11:49;102058.59;;;16.66;56.99
38616;BME280;24370;51.986;4.666;2023-02-21T08:14:14;102069.00;;;17.75;52.85
38616;BME280;24370;51.986;4.666;2023-02-21T08:16:40;102072.59;;;16.73;55.07
38616;BME280;24370;51.986;4.666;2023-02-21T08:19:05;102069.28;;;16.60;56.82
38616;BME280;24370;51.986;4.666;2023-02-21T08:21:32;102063.50;;;16.91;54.79
38616;BME280;24370;51.986;4.666;2023-02-21T08:23:57;102061.53;;;17.52;53.95
38616;BME280;24370;51.986;4.666;2023-02-21T08:26:22;102065.00;;;17.54;53.43
38616;BME280;24370;51.986;4.666;2023-02-21T08:28:48;102063.16;;;18.03;51.66
38616;BME280;24370;51.986;4.666;2023-02-21T08:31:13;102071.66;;;17.75;53.00
38616;BME280;24370;51.986;4.666;2023-02-21T08:33:38;102079.97;;;16.51;55.32
38616;BME280;24370;51.986;4.666;2023-02-21T08:36:04;102083.13;;;17.27;54.27
38616;BME280;24370;51.986;4.666;2023-02-21T08:38:30;102081.19;;;16.28;57.14
38616;BME280;24370;51.986;4.666;2023-02-21T08:40:55;102077.63;;;16.87;54.79
38616;BME280;24370;51.986;4.666;2023-02-21T08:43:22;102071.34;;;17.89;52.45
38616;BME280;24370;51.986;4.666;2023-02-21T08:45:47;102075.03;;;17.38;54.36
38616;BME280;24370;51.986;4.666;2023-02-21T08:48:13;102070.06;;;17.20;53.55
38616;BME280;24370;51.986;4.666;2023-02-21T08:50:38;102074.44;;;16.66;56.37
38616;BME280;24370;51.986;4.666;2023-02-21T08:53:04;102074.97;;;16.32;58.10
38616;BME280;24370;51.986;4.666;2023-02-21T08:55:29;102067.84;;;16.37;57.79
38616;BME280;24370;51.986;4.666;2023-02-21T08:57:54;102075.16;;;16.20;57.02
38616;BME280;24370;51.986;4.666;2023-02-21T09:00:22;102065.00;;;17.07;55.38
38616;BME280;24370;51.986;4.666;2023-02-21T09:02:51;102058.88;;;17.05;55.19
38616;BME280;24370;51.986;4.666;2023-02-21T09:05:25;102067.28;;;16.74;56.04
38616;BME280;24370;51.986;4.666;2023-02-21T09:07:52;102057.44;;;16.86;55.86
38616;BME280;24370;51.986;4.666;2023-02-21T09:10:27;102061.69;;;17.43;54.35
38616;BME280;24370;51.986;4.666;2023-02-21T09:12:53;102060.88;;;17.83;52.81
38616;BME280;24370;51.986;4.666;2023-02-21T09:15:18;102061.50;;;17.54;54.47
38616;BME280;24370;51.986;4.666;2023-02-21T09:17:44;102056.09;;;17.58;52.72
38616;BME280;24370;51.986;4.666;2023-02-21T09:20:14;102054.41;;;17.10;54.33
38616;BME280;24370;51.986;4.666;2023-02-21T09:22:44;102058.06;;;17.94;52.86
38616;BME280;24370;51.986;4.666;2023-02-21T09:25:11;102056.09;;;16.60;56.02
38616;BME280;24370;51.986;4.666;2023-02-21T09:27:38;102060.97;;;16.85;57.43
38616;BME280;24370;51.986;4.666;2023-02-21T09:30:24;102056.50;;;17.84;53.14
38616;BME280;24370;51.986;4.666;2023-02-21T09:32:50;102057.34;;;16.92;56.39
38616;BME280;24370;51.986;4.666;2023-02-21T09:35:16;102049.22;;;17.95;53.21
38616;BME280;24370;51.986;4.666;2023-02-21T09:37:43;102045.22;;;17.30;54.66
38616;BME280;24370;51.986;4.666;2023-02-21T09:42:54;102052.03;;;17.43;55.07
38616;BME280;24370;51.986;4.666;2023-02-21T09:45:21;102044.44;;;17.70;53.60
38616;BME280;24370;51.986;4.666;2023-02-21T09:47:51;102043.25;;;17.41;53.54
38616;BME280;24370;51.986;4.666;2023-02-21T09:50:23;102043.19;;;17.87;52.59
38616;BME280;24370;51.986;4.666;2023-02-21T09:52:52;102043.06;;;16.48;58.12
38616;BME280;24370;51.986;4.666;2023-02-21T09:55:27;102042.75;;;17.21;55.03
38616;BME280;24370;51.986;4.666;2023-02-21T09:57:53;102045.09;;;16.86;55.88
38616;BME280;24370;51.986;4.666;2023-02-21T10:00:22;102044.91;;;16.99;56.46
38616;BME280;24370;51.986;4.666;2023-02-21T10:05:29;102046.75;;;17.43;55.48
38616;BME280;24370;51.986;4.666;2023-02-21T10:07:59;102046.25;;;17.68;54.63
38616;BME280;24370;51.986;4.666;2023-02-21T10:15:41;102036.84;;;18.36;52.06
38616;BME280;24370;51.986;4.666;2023-02-21T10:18:23;102047.13;;;17.22;55.08
38616;BME280;24370;51.986;4.666;2023-02-21T10:20:55;102031.50;;;17.09;56.79
38616;BME280;24370;51.986;4.666;2023-02-21T10:23:38;102038.88;;;17.83;54.63
38616;BME280;24370;51.986;4.666;2023-02-21T10:26:09;102046.16;;;16.17;59.93
38616;BME280;24370;51.986;4.666;2023-02-21T10:28:36;102050.63;;;16.10;59.37
38616;BME280;24370;51.986;4.666;2023-02-21T10:31:15;102034.59;;;16.83;56.83
38616;BME280;24370;51.986;4.666;2023-02-21T10:33:42;102040.50;;;16.44;58.24
38616;BME280;24370;51.986;4.666;2023-02-21T10:36:19;102033.81;;;17.26;56.47
38616;BME280;24370;51.986;4.666;2023-02-21T10:38:54;102035.44;;;17.77;54.38
38616;BME280;24370;51.986;4.666;2023-02-21T10:41:21;102033.69;;;16.83;57.26
38616;BME280;24370;51.986;4.666;2023-02-21T10:43:50;102034.41;;;16.39;58.69
38616;BME280;24370;51.986;4.666;2023-02-21T10:46:46;102025.44;;;16.50;59.79
38616;BME280;24370;51.986;4.666;2023-02-21T10:49:24;102026.69;;;17.32;57.36
38616;BME280;24370;51.986;4.666;2023-02-21T10:52:19;102028.81;;;17.58;56.06
38616;BME280;24370;51.986;4.666;2023-02-21T10:55:06;102026.28;;;17.06;57.13
38616;BME280;24370;51.986;4.666;2023-02-21T10:57:40;102030.94;;;15.67;61.78
38616;BME280;24370;51.986;4.666;2023-02-21T11:00:06;102024.97;;;16.79;60.43
38616;BME280;24370;51.986;4.666;2023-02-21T11:02:36;102026.66;;;17.33;57.23
38616;BME280;24370;51.986;4.666;2023-02-21T11:05:16;102031.16;;;17.28;56.70
38616;BME280;24370;51.986;4.666;2023-02-21T11:08:02;102023.94;;;17.36;56.53
38616;BME280;24370;51.986;4.666;2023-02-21T11:10:37;102019.69;;;16.79;58.50
38616;BME280;24370;51.986;4.666;2023-02-21T11:13:22;102025.00;;;16.77;58.62
38616;BME280;24370;51.986;4.666;2023-02-21T11:15:48;102019.19;;;17.08;57.46
38616;BME280;24370;51.986;4.666;2023-02-21T11:18:24;102020.28;;;16.96;57.40
38616;BME280;24370;51.986;4.666;2023-02-21T11:20:51;102014.09;;;17.44;55.52
38616;BME280;24370;51.986;4.666;2023-02-21T11:23:29;102012.97;;;17.12;56.16
38616;BME280;24370;51.986;4.666;2023-02-21T11:26:11;102016.69;;;16.48;59.35
38616;BME280;24370;51.986;4.666;2023-02-21T11:28:42;102007.91;;;17.45;56.03
38616;BME280;24370;51.986;4.666;2023-02-21T11:31:34;102007.81;;;17.06;57.54
38616;BME280;24370;51.986;4.666;2023-02-21T11:34:04;102008.16;;;16.30;58.37
38616;BME280;24370;51.986;4.666;2023-02-21T11:36:33;102015.97;;;15.72;61.88
38616;BME280;24370;51.986;4.666;2023-02-21T11:41:58;101994.63;;;17.49;57.14
38616;BME280;24370;51.986;4.666;2023-02-21T11:46:55;102001.94;;;16.89;58.64
38616;BME280;24370;51.986;4.666;2023-02-21T11:49:49;101997.34;;;17.00;56.21
38616;BME280;24370;51.986;4.666;2023-02-21T11:52:21;101988.34;;;17.10;57.72
38616;BME280;24370;51.986;4.666;2023-02-21T11:54:50;101989.78;;;17.69;55.68
38616;BME280;24370;51.986;4.666;2023-02-21T11:57:39;101984.47;;;16.78;57.28
38616;BME280;24370;51.986;4.666;2023-02-21T12:05:58;101985.09;;;17.41;56.03
38616;BME280;24370;51.986;4.666;2023-02-21T12:23:15;101982.13;;;17.15;56.06
38616;BME280;24370;51.986;4.666;2023-02-21T12:38:45;101962.72;;;18.00;52.45
38616;BME280;24370;51.986;4.666;2023-02-21T12:41:30;101961.38;;;17.80;52.81
38616;BME280;24370;51.986;4.666;2023-02-21T12:46:54;101957.22;;;16.78;56.83
38616;BME280;24370;51.986;4.666;2023-02-21T12:49:28;101949.50;;;17.16;54.90
38616;BME280;24370;51.986;4.666;2023-02-21T12:52:01;101955.50;;;16.24;58.77
38616;BME280;24370;51.986;4.666;2023-02-21T12:54:34;101953.06;;;17.13;54.85
38616;BME280;24370;51.986;4.666;2023-02-21T12:57:04;101950.88;;;16.90;56.28
38616;BME280;24370;51.986;4.666;2023-02-21T12:59:50;101952.56;;;16.94;56.58
38616;BME280;24370;51.986;4.666;2023-02-21T13:02:30;101958.13;;;16.75;57.20
38616;BME280;24370;51.986;4.666;2023-02-21T13:05:55;101943.88;;;17.33;54.98
38616;BME280;24370;51.986;4.666;2023-02-21T13:12:34;101946.91;;;16.09;58.82
38616;BME280;24370;51.986;4.666;2023-02-21T13:17:09;101956.38;;;16.24;57.58
38616;BME280;24370;51.986;4.666;2023-02-21T13:19:45;101947.63;;;17.21;54.99
38616;BME280;24370;51.986;4.666;2023-02-21T13:25:06;101953.78;;;15.57;62.36
38616;BME280;24370;51.986;4.666;2023-02-21T13:27:52;101942.94;;;16.38;58.24
38616;BME280;24370;51.986;4.666;2023-02-21T13:30:24;101948.06;;;16.48;56.47
38616;BME280;24370;51.986;4.666;2023-02-21T13:32:52;101937.66;;;16.38;55.51
38616;BME280;24370;51.986;4.666;2023-02-21T13:35:24;101927.13;;;16.87;56.71
38616;BME280;24370;51.986;4.666;2023-02-21T13:37:50;101937.00;;;16.25;57.75
38616;BME280;24370;51.986;4.666;2023-02-21T13:40:23;101928.41;;;17.14;54.78
38616;BME280;24370;51.986;4.666;2023-02-21T13:43:03;101929.81;;;16.35;57.03
38616;BME280;24370;51.986;4.666;2023-02-21T13:45:30;101931.44;;;16.42;55.89
38616;BME280;24370;51.986;4.666;2023-02-21T13:55:33;101915.22;;;18.31;49.21
38616;BME280;24370;51.986;4.666;2023-02-21T14:11:22;101907.69;;;16.42;52.72
38616;BME280;24370;51.986;4.666;2023-02-21T14:14:02;101908.22;;;16.11;53.93
38616;BME280;24370;51.986;4.666;2023-02-21T14:16:44;101901.94;;;16.19;53.49
38616;BME280;24370;51.986;4.666;2023-02-21T14:19:18;101901.78;;;16.30;53.96
38616;BME280;24370;51.986;4.666;2023-02-21T14:21:47;101903.47;;;17.27;51.09
38616;BME280;24370;51.986;4.666;2023-02-21T14:24:28;101912.06;;;15.89;53.90
38616;BME280;24370;51.986;4.666;2023-02-21T14:37:29;101900.09;;;16.22;54.17
38616;BME280;24370;51.986;4.666;2023-02-21T14:40:08;101897.50;;;16.21;53.62
38616;BME280;24370;51.986;4.666;2023-02-21T14:50:27;101894.34;;;16.52;52.25
38616;BME280;24370;51.986;4.666;2023-02-21T15:04:22;101890.44;;;17.18;50.95
38616;BME280;24370;51.986;4.666;2023-02-21T15:07:06;101885.19;;;16.71;51.45
38616;BME280;24370;51.986;4.666;2023-02-21T15:09:32;101883.03;;;15.92;52.81
38616;BME280;24370;51.986;4.666;2023-02-21T15:11:58;101878.38;;;17.06;50.38
38616;BME280;24370;51.986;4.666;2023-02-21T15:14:26;101881.66;;;16.24;53.03
38616;BME280;24370;51.986;4.666;2023-02-21T15:16:57;101885.00;;;17.26;49.91
38616;BME280;24370;51.986;4.666;2023-02-21T15:22:16;101886.84;;;16.27;52.09
38616;BME280;24370;51.986;4.666;2023-02-21T15:27:31;101883.19;;;17.69;49.06
38616;BME280;24370;51.986;4.666;2023-02-21T15:30:07;101880.84;;;17.55;48.57
38616;BME280;24370;51.986;4.666;2023-02-21T15:32:38;101877.09;;;16.81;50.93
38616;BME280;24370;51.986;4.666;2023-02-21T15:35:05;101883.53;;;16.14;52.38
38616;BME280;24370;51.986;4.666;2023-02-21T15:37:37;101889.56;;;15.63;53.68
38616;BME280;24370;51.986;4.666;2023-02-21T15:40:12;101883.16;;;16.86;51.76
38616;BME280;24370;51.986;4.666;2023-02-21T15:42:40;101883.84;;;16.97;51.20